sensor_id;sensor_type;location;lat;lon;timestamp;P1;durP1;ratioP1;P2;durP2;ratioP2
51214;SDS011;63849;47.546;19.254;2024-01-15T00:01:57;92.70;;;49.97;;
51214;SDS011;63849;47.546;19.254;2024-01-15T00:04:23;92.03;;;48.45;;
51214;SDS011;63849;47.546;19.254;2024-01-15T00:06:49;110.10;;;57.70;;
51214;SDS011;63849;47.546;19.254;2024-01-15T00:09:15;122.80;;;61.53;;
51214;SDS011;63849;47.546;19.254;2024-01-15T00:11:41;120.75;;;60.78;;
51214;SDS011;63849;47.546;19.254;2024-01-15T00:14:08;119.32;;;56.85;;
51214;SDS011;63849;47.546;19.254;2024-01-15T00:16:33;109.32;;;54.35;;
51214;SDS011;63849;47.546;19.254;2024-01-15T00:18:59;109.95;;;52.40;;
51214;SDS011;63849;47.546;19.254;2024-01-15T00:21:25;127.28;;;64.25;;
51214;SDS011;63849;47.546;19.254;2024-01-15T00:23:51;94.18;;;50.63;;
51214;SDS011;63849;47.546;19.254;2024-01-15T00:26:16;94.38;;;50.42;;
51214;SDS011;63849;47.546;19.254;2024-01-15T00:28:42;92.72;;;48.67;;
51214;SDS011;63849;47.546;19.254;2024-01-15T00:31:08;92.38;;;47.00;;
51214;SDS011;63849;47.546;19.254;2024-01-15T00:33:34;86.68;;;46.33;;
51214;SDS011;63849;47.546;19.254;2024-01-15T00:36:00;86.30;;;46.22;;
51214;SDS011;63849;47.546;19.254;2024-01-15T00:38:25;91.43;;;48.63;;
51214;SDS011;63849;47.546;19.254;2024-01-15T00:40:51;79.53;;;43.72;;
51214;SDS011;63849;47.546;19.254;2024-01-15T00:43:17;78.40;;;43.10;;
51214;SDS011;63849;47.546;19.254;2024-01-15T00:45:44;81.65;;;44.67;;
51214;SDS011;63849;47.546;19.254;2024-01-15T00:48:10;76.55;;;43.33;;
51214;SDS011;63849;47.546;19.254;2024-01-15T00:50:35;79.10;;;44.00;;
51214;SDS011;63849;47.546;19.254;2024-01-15T00:53:01;80.63;;;44.58;;
51214;SDS011;63849;47.546;19.254;2024-01-15T00:55:27;82.30;;;45.42;;
51214;SDS011;63849;47.546;19.254;2024-01-15T00:57:53;76.57;;;42.83;;
51214;SDS011;63849;47.546;19.254;2024-01-15T01:00:19;81.57;;;43.95;;
51214;SDS011;63849;47.546;19.254;2024-01-15T01:02:45;83.63;;;45.83;;
51214;SDS011;63849;47.546;19.254;2024-01-15T01:05:10;85.15;;;45.80;;
51214;SDS011;63849;47.546;19.254;2024-01-15T01:07:36;84.97;;;45.80;;
51214;SDS011;63849;47.546;19.254;2024-01-15T01:10:02;83.25;;;45.97;;
51214;SDS011;63849;47.546;19.254;2024-01-15T01:12:28;84.88;;;45.25;;
51214;SDS011;63849;47.546;19.254;2024-01-15T01:14:54;85.78;;;46.20;;
51214;SDS011;63849;47.546;19.254;2024-01-15T01:17:20;84.93;;;45.58;;
51214;SDS011;63849;47.546;19.254;2024-01-15T01:19:46;78.35;;;45.22;;
51214;SDS011;63849;47.546;19.254;2024-01-15T01:22:11;83.65;;;46.60;;
51214;SDS011;63849;47.546;19.254;2024-01-15T01:24:37;82.10;;;46.55;;
51214;SDS011;63849;47.546;19.254;2024-01-15T01:27:03;76.10;;;43.92;;
51214;SDS011;63849;47.546;19.254;2024-01-15T01:29:29;82.10;;;45.80;;
51214;SDS011;63849;47.546;19.254;2024-01-15T01:31:54;80.10;;;44.28;;
51214;SDS011;63849;47.546;19.254;2024-01-15T01:34:21;75.70;;;43.13;;
51214;SDS011;63849;47.546;19.254;2024-01-15T01:36:47;75.50;;;42.60;;
51214;SDS011;63849;47.546;19.254;2024-01-15T01:39:13;75.07;;;44.28;;
51214;SDS011;63849;47.546;19.254;2024-01-15T01:41:38;73.60;;;42.13;;
51214;SDS011;63849;47.546;19.254;2024-01-15T01:44:05;75.22;;;42.17;;
51214;SDS011;63849;47.546;19.254;2024-01-15T01:46:31;73.40;;;43.35;;
51214;SDS011;63849;47.546;19.254;2024-01-15T01:48:56;77.05;;;44.08;;
51214;SDS011;63849;47.546;19.254;2024-01-15T01:51:23;81.18;;;45.78;;
51214;SDS011;63849;47.546;19.254;2024-01-15T01:53:50;79.68;;;44.70;;
51214;SDS011;63849;47.546;19.254;2024-01-15T01:56:17;72.95;;;42.58;;
51214;SDS011;63849;47.546;19.254;2024-01-15T01:58:43;73.78;;;42.72;;
51214;SDS011;63849;47.546;19.254;2024-01-15T02:01:10;75.63;;;43.00;;
51214;SDS011;63849;47.546;19.254;2024-01-15T02:03:38;72.75;;;42.28;;
51214;SDS011;63849;47.546;19.254;2024-01-15T02:06:05;70.40;;;40.72;;
51214;SDS011;63849;47.546;19.254;2024-01-15T02:08:31;73.78;;;41.72;;
51214;SDS011;63849;47.546;19.254;2024-01-15T02:10:56;71.13;;;42.63;;
51214;SDS011;63849;47.546;19.254;2024-01-15T02:13:22;73.15;;;42.60;;
51214;SDS011;63849;47.546;19.254;2024-01-15T02:15:48;73.32;;;41.97;;
51214;SDS011;63849;47.546;19.254;2024-01-15T02:18:14;74.18;;;43.13;;
51214;SDS011;63849;47.546;19.254;2024-01-15T02:20:39;69.40;;;43.00;;
51214;SDS011;63849;47.546;19.254;2024-01-15T02:23:12;83.25;;;46.22;;
51214;SDS011;63849;47.546;19.254;2024-01-15T02:25:42;77.13;;;45.03;;
51214;SDS011;63849;47.546;19.254;2024-01-15T02:28:10;78.53;;;45.70;;
51214;SDS011;63849;47.546;19.254;2024-01-15T02:30:40;74.43;;;44.55;;
51214;SDS011;63849;47.546;19.254;2024-01-15T02:33:07;73.78;;;44.45;;
51214;SDS011;63849;47.546;19.254;2024-01-15T02:35:33;70.72;;;43.38;;
51214;SDS011;63849;47.546;19.254;2024-01-15T02:38:01;72.50;;;43.60;;
51214;SDS011;63849;47.546;19.254;2024-01-15T02:40:27;78.45;;;45.15;;
51214;SDS011;63849;47.546;19.254;2024-01-15T02:42:53;70.88;;;43.25;;
51214;SDS011;63849;47.546;19.254;2024-01-15T02:45:19;80.63;;;45.67;;
51214;SDS011;63849;47.546;19.254;2024-01-15T02:47:46;74.30;;;43.70;;
51214;SDS011;63849;47.546;19.254;2024-01-15T02:50:12;71.38;;;42.67;;
51214;SDS011;63849;47.546;19.254;2024-01-15T02:52:38;75.95;;;43.83;;
51214;SDS011;63849;47.546;19.254;2024-01-15T02:55:04;71.80;;;41.83;;
51214;SDS011;63849;47.546;19.254;2024-01-15T02:57:29;79.28;;;44.72;;
51214;SDS011;63849;47.546;19.254;2024-01-15T02:59:55;78.93;;;44.80;;
51214;SDS011;63849;47.546;19.254;2024-01-15T03:02:21;74.47;;;43.63;;
51214;SDS011;63849;47.546;19.254;2024-01-15T03:04:46;79.30;;;43.20;;
51214;SDS011;63849;47.546;19.254;2024-01-15T03:07:12;84.63;;;45.55;;
51214;SDS011;63849;47.546;19.254;2024-01-15T03:09:38;77.97;;;44.55;;
51214;SDS011;63849;47.546;19.254;2024-01-15T03:12:03;77.80;;;43.85;;
51214;SDS011;63849;47.546;19.254;2024-01-15T03:14:29;79.28;;;46.13;;
51214;SDS011;63849;47.546;19.254;2024-01-15T03:16:55;80.47;;;45.10;;
51214;SDS011;63849;47.546;19.254;2024-01-15T03:19:21;77.03;;;43.72;;
51214;SDS011;63849;47.546;19.254;2024-01-15T03:21:46;79.38;;;43.83;;
51214;SDS011;63849;47.546;19.254;2024-01-15T03:24:12;80.10;;;45.13;;
51214;SDS011;63849;47.546;19.254;2024-01-15T03:26:38;81.10;;;46.63;;
51214;SDS011;63849;47.546;19.254;2024-01-15T03:29:04;83.75;;;45.75;;
51214;SDS011;63849;47.546;19.254;2024-01-15T03:31:29;83.15;;;47.47;;
51214;SDS011;63849;47.546;19.254;2024-01-15T03:33:55;85.60;;;47.75;;
51214;SDS011;63849;47.546;19.254;2024-01-15T03:36:21;87.70;;;47.80;;
51214;SDS011;63849;47.546;19.254;2024-01-15T03:38:47;79.45;;;46.70;;
51214;SDS011;63849;47.546;19.254;2024-01-15T03:41:13;83.35;;;48.78;;
51214;SDS011;63849;47.546;19.254;2024-01-15T03:43:38;82.82;;;47.25;;
51214;SDS011;63849;47.546;19.254;2024-01-15T03:46:05;79.18;;;47.30;;
51214;SDS011;63849;47.546;19.254;2024-01-15T03:48:30;92.10;;;50.83;;
51214;SDS011;63849;47.546;19.254;2024-01-15T03:50:56;85.38;;;47.55;;
51214;SDS011;63849;47.546;19.254;2024-01-15T03:53:22;89.65;;;47.80;;
51214;SDS011;63849;47.546;19.254;2024-01-15T03:55:47;89.60;;;48.33;;
51214;SDS011;63849;47.546;19.254;2024-01-15T03:58:14;81.30;;;46.90;;
51214;SDS011;63849;47.546;19.254;2024-01-15T04:00:40;82.80;;;47.30;;
51214;SDS011;63849;47.546;19.254;2024-01-15T04:03:06;84.55;;;48.45;;
51214;SDS011;63849;47.546;19.254;2024-01-15T04:05:32;82.65;;;47.55;;
51214;SDS011;63849;47.546;19.254;2024-01-15T04:07:57;85.20;;;49.15;;
51214;SDS011;63849;47.546;19.254;2024-01-15T04:10:23;92.45;;;50.97;;
51214;SDS011;63849;47.546;19.254;2024-01-15T04:12:49;86.15;;;50.58;;
51214;SDS011;63849;47.546;19.254;2024-01-15T04:15:14;91.68;;;52.30;;
51214;SDS011;63849;47.546;19.254;2024-01-15T04:17:40;89.28;;;50.80;;
51214;SDS011;63849;47.546;19.254;2024-01-15T04:20:06;88.65;;;50.80;;
51214;SDS011;63849;47.546;19.254;2024-01-15T04:22:33;88.90;;;51.42;;
51214;SDS011;63849;47.546;19.254;2024-01-15T04:25:01;86.50;;;48.58;;
51214;SDS011;63849;47.546;19.254;2024-01-15T04:27:27;83.15;;;47.75;;
51214;SDS011;63849;47.546;19.254;2024-01-15T04:29:53;80.65;;;46.33;;
51214;SDS011;63849;47.546;19.254;2024-01-15T04:32:19;83.28;;;48.00;;
51214;SDS011;63849;47.546;19.254;2024-01-15T04:34:44;81.28;;;45.38;;
51214;SDS011;63849;47.546;19.254;2024-01-15T04:37:10;78.10;;;46.55;;
51214;SDS011;63849;47.546;19.254;2024-01-15T04:39:36;84.38;;;47.88;;
51214;SDS011;63849;47.546;19.254;2024-01-15T04:42:02;80.63;;;47.70;;
51214;SDS011;63849;47.546;19.254;2024-01-15T04:44:28;83.32;;;46.85;;
51214;SDS011;63849;47.546;19.254;2024-01-15T04:46:54;80.38;;;45.33;;
51214;SDS011;63849;47.546;19.254;2024-01-15T04:49:19;77.97;;;44.65;;
51214;SDS011;63849;47.546;19.254;2024-01-15T04:51:45;77.57;;;45.60;;
51214;SDS011;63849;47.546;19.254;2024-01-15T04:54:11;81.68;;;45.88;;
51214;SDS011;63849;47.546;19.254;2024-01-15T04:56:36;79.60;;;45.42;;
51214;SDS011;63849;47.546;19.254;2024-01-15T04:59:02;84.40;;;47.83;;
51214;SDS011;63849;47.546;19.254;2024-01-15T05:01:34;81.97;;;46.47;;
51214;SDS011;63849;47.546;19.254;2024-01-15T05:04:00;81.53;;;45.92;;
51214;SDS011;63849;47.546;19.254;2024-01-15T05:06:25;73.05;;;44.13;;
51214;SDS011;63849;47.546;19.254;2024-01-15T05:08:51;73.50;;;44.40;;
51214;SDS011;63849;47.546;19.254;2024-01-15T05:11:17;80.15;;;43.78;;
51214;SDS011;63849;47.546;19.254;2024-01-15T05:13:43;79.35;;;46.08;;
51214;SDS011;63849;47.546;19.254;2024-01-15T05:16:08;80.82;;;46.30;;
51214;SDS011;63849;47.546;19.254;2024-01-15T05:18:34;79.70;;;45.22;;
51214;SDS011;63849;47.546;19.254;2024-01-15T05:20:59;76.18;;;43.20;;
51214;SDS011;63849;47.546;19.254;2024-01-15T05:23:25;85.13;;;43.78;;
51214;SDS011;63849;47.546;19.254;2024-01-15T05:25:51;73.22;;;42.90;;
51214;SDS011;63849;47.546;19.254;2024-01-15T05:28:16;85.05;;;47.72;;
51214;SDS011;63849;47.546;19.254;2024-01-15T05:30:42;83.75;;;48.63;;
51214;SDS011;63849;47.546;19.254;2024-01-15T05:33:08;80.65;;;47.42;;
51214;SDS011;63849;47.546;19.254;2024-01-15T05:35:34;84.03;;;45.67;;
51214;SDS011;63849;47.546;19.254;2024-01-15T05:37:59;83.72;;;48.15;;
51214;SDS011;63849;47.546;19.254;2024-01-15T05:40:25;83.40;;;46.30;;
51214;SDS011;63849;47.546;19.254;2024-01-15T05:42:51;80.53;;;47.63;;
51214;SDS011;63849;47.546;19.254;2024-01-15T05:45:17;84.90;;;48.22;;
51214;SDS011;63849;47.546;19.254;2024-01-15T05:47:42;84.82;;;47.08;;
51214;SDS011;63849;47.546;19.254;2024-01-15T05:50:09;77.82;;;45.20;;
51214;SDS011;63849;47.546;19.254;2024-01-15T05:52:35;83.45;;;47.80;;
51214;SDS011;63849;47.546;19.254;2024-01-15T05:55:01;80.80;;;44.42;;
51214;SDS011;63849;47.546;19.254;2024-01-15T05:57:27;118.13;;;59.72;;
51214;SDS011;63849;47.546;19.254;2024-01-15T05:59:53;119.63;;;64.80;;
51214;SDS011;63849;47.546;19.254;2024-01-15T06:02:19;120.88;;;61.85;;
51214;SDS011;63849;47.546;19.254;2024-01-15T06:04:44;119.47;;;58.90;;
51214;SDS011;63849;47.546;19.254;2024-01-15T06:07:10;113.50;;;60.20;;
51214;SDS011;63849;47.546;19.254;2024-01-15T06:09:36;114.60;;;60.25;;
51214;SDS011;63849;47.546;19.254;2024-01-15T06:12:02;107.72;;;57.90;;
51214;SDS011;63849;47.546;19.254;2024-01-15T06:14:27;111.18;;;61.85;;
51214;SDS011;63849;47.546;19.254;2024-01-15T06:16:53;104.20;;;57.50;;
51214;SDS011;63849;47.546;19.254;2024-01-15T06:19:19;105.68;;;57.72;;
51214;SDS011;63849;47.546;19.254;2024-01-15T06:21:44;102.32;;;54.72;;
51214;SDS011;63849;47.546;19.254;2024-01-15T06:24:10;98.30;;;56.63;;
51214;SDS011;63849;47.546;19.254;2024-01-15T06:26:36;100.32;;;54.67;;
51214;SDS011;63849;47.546;19.254;2024-01-15T06:29:01;98.88;;;56.70;;
51214;SDS011;63849;47.546;19.254;2024-01-15T06:31:28;96.85;;;56.38;;
51214;SDS011;63849;47.546;19.254;2024-01-15T06:33:54;99.97;;;58.05;;
51214;SDS011;63849;47.546;19.254;2024-01-15T06:36:21;97.97;;;55.85;;
51214;SDS011;63849;47.546;19.254;2024-01-15T06:38:46;94.70;;;55.47;;
51214;SDS011;63849;47.546;19.254;2024-01-15T06:41:12;95.15;;;55.72;;
51214;SDS011;63849;47.546;19.254;2024-01-15T06:43:38;105.00;;;56.58;;
51214;SDS011;63849;47.546;19.254;2024-01-15T06:46:03;98.13;;;56.25;;
51214;SDS011;63849;47.546;19.254;2024-01-15T06:48:29;103.88;;;57.90;;
51214;SDS011;63849;47.546;19.254;2024-01-15T06:50:55;100.22;;;57.35;;
51214;SDS011;63849;47.546;19.254;2024-01-15T06:53:20;97.65;;;56.22;;
51214;SDS011;63849;47.546;19.254;2024-01-15T06:55:46;96.63;;;55.65;;
51214;SDS011;63849;47.546;19.254;2024-01-15T06:58:12;94.88;;;53.00;;
51214;SDS011;63849;47.546;19.254;2024-01-15T07:00:37;97.00;;;54.33;;
51214;SDS011;63849;47.546;19.254;2024-01-15T07:03:03;93.10;;;54.05;;
51214;SDS011;63849;47.546;19.254;2024-01-15T07:05:29;97.10;;;56.78;;
51214;SDS011;63849;47.546;19.254;2024-01-15T07:07:55;109.10;;;62.53;;
51214;SDS011;63849;47.546;19.254;2024-01-15T07:10:21;99.72;;;57.80;;
51214;SDS011;63849;47.546;19.254;2024-01-15T07:12:47;99.97;;;55.67;;
51214;SDS011;63849;47.546;19.254;2024-01-15T07:15:12;94.95;;;54.47;;
51214;SDS011;63849;47.546;19.254;2024-01-15T07:17:38;103.97;;;57.95;;
51214;SDS011;63849;47.546;19.254;2024-01-15T07:20:05;108.10;;;61.58;;
51214;SDS011;63849;47.546;19.254;2024-01-15T07:22:33;116.45;;;63.45;;
51214;SDS011;63849;47.546;19.254;2024-01-15T07:24:59;109.35;;;61.38;;
51214;SDS011;63849;47.546;19.254;2024-01-15T07:27:25;107.72;;;59.13;;
51214;SDS011;63849;47.546;19.254;2024-01-15T07:29:50;105.85;;;59.70;;
51214;SDS011;63849;47.546;19.254;2024-01-15T07:32:17;97.63;;;58.00;;
51214;SDS011;63849;47.546;19.254;2024-01-15T07:34:43;97.40;;;57.25;;
51214;SDS011;63849;47.546;19.254;2024-01-15T07:37:08;95.85;;;55.17;;
51214;SDS011;63849;47.546;19.254;2024-01-15T07:39:34;96.55;;;56.22;;
51214;SDS011;63849;47.546;19.254;2024-01-15T07:42:00;98.53;;;57.20;;
51214;SDS011;63849;47.546;19.254;2024-01-15T07:44:26;96.85;;;56.63;;
51214;SDS011;63849;47.546;19.254;2024-01-15T07:46:51;99.93;;;56.10;;
51214;SDS011;63849;47.546;19.254;2024-01-15T07:49:17;104.55;;;59.08;;
51214;SDS011;63849;47.546;19.254;2024-01-15T07:51:42;105.80;;;61.15;;
51214;SDS011;63849;47.546;19.254;2024-01-15T07:54:09;107.38;;;59.78;;
51214;SDS011;63849;47.546;19.254;2024-01-15T07:56:52;104.75;;;63.97;;
51214;SDS011;63849;47.546;19.254;2024-01-15T07:59:30;105.45;;;63.38;;
51214;SDS011;63849;47.546;19.254;2024-01-15T08:01:58;103.35;;;62.67;;
51214;SDS011;63849;47.546;19.254;2024-01-15T08:04:24;110.53;;;62.95;;
51214;SDS011;63849;47.546;19.254;2024-01-15T08:06:50;102.38;;;61.25;;
51214;SDS011;63849;47.546;19.254;2024-01-15T08:09:15;103.28;;;61.00;;
51214;SDS011;63849;47.546;19.254;2024-01-15T08:11:42;99.53;;;58.83;;
51214;SDS011;63849;47.546;19.254;2024-01-15T08:14:08;100.45;;;58.08;;
51214;SDS011;63849;47.546;19.254;2024-01-15T08:16:38;94.63;;;57.35;;
51214;SDS011;63849;47.546;19.254;2024-01-15T08:19:03;98.85;;;55.33;;
51214;SDS011;63849;47.546;19.254;2024-01-15T08:21:30;85.38;;;50.75;;
51214;SDS011;63849;47.546;19.254;2024-01-15T08:23:57;74.90;;;45.72;;
51214;SDS011;63849;47.546;19.254;2024-01-15T08:26:27;79.35;;;45.45;;
51214;SDS011;63849;47.546;19.254;2024-01-15T08:28:53;109.15;;;54.88;;
51214;SDS011;63849;47.546;19.254;2024-01-15T08:31:19;75.93;;;45.45;;
51214;SDS011;63849;47.546;19.254;2024-01-15T08:33:44;74.85;;;43.85;;
51214;SDS011;63849;47.546;19.254;2024-01-15T08:36:11;79.50;;;44.70;;
51214;SDS011;63849;47.546;19.254;2024-01-15T08:38:36;68.53;;;41.13;;
51214;SDS011;63849;47.546;19.254;2024-01-15T08:41:02;65.47;;;37.38;;
51214;SDS011;63849;47.546;19.254;2024-01-15T08:43:28;65.35;;;38.13;;
51214;SDS011;63849;47.546;19.254;2024-01-15T08:49:51;57.78;;;31.42;;
51214;SDS011;63849;47.546;19.254;2024-01-15T08:52:16;48.45;;;30.10;;
51214;SDS011;63849;47.546;19.254;2024-01-15T08:54:42;45.88;;;27.67;;
51214;SDS011;63849;47.546;19.254;2024-01-15T08:57:08;51.22;;;28.02;;
51214;SDS011;63849;47.546;19.254;2024-01-15T08:59:33;49.65;;;27.90;;
51214;SDS011;63849;47.546;19.254;2024-01-15T09:01:59;49.47;;;29.98;;
51214;SDS011;63849;47.546;19.254;2024-01-15T09:04:25;48.63;;;28.27;;
51214;SDS011;63849;47.546;19.254;2024-01-15T09:06:50;53.70;;;30.38;;
51214;SDS011;63849;47.546;19.254;2024-01-15T09:09:16;48.15;;;29.23;;
51214;SDS011;63849;47.546;19.254;2024-01-15T09:11:41;44.88;;;26.42;;
51214;SDS011;63849;47.546;19.254;2024-01-15T09:14:07;43.53;;;25.92;;
51214;SDS011;63849;47.546;19.254;2024-01-15T09:16:34;43.65;;;25.15;;
51214;SDS011;63849;47.546;19.254;2024-01-15T09:19:00;43.58;;;26.42;;
51214;SDS011;63849;47.546;19.254;2024-01-15T09:21:25;44.45;;;24.77;;
51214;SDS011;63849;47.546;19.254;2024-01-15T09:23:51;39.65;;;22.15;;
51214;SDS011;63849;47.546;19.254;2024-01-15T09:26:17;37.17;;;23.80;;
51214;SDS011;63849;47.546;19.254;2024-01-15T09:28:42;40.10;;;23.38;;
51214;SDS011;63849;47.546;19.254;2024-01-15T09:31:08;38.85;;;22.90;;
51214;SDS011;63849;47.546;19.254;2024-01-15T09:33:34;37.70;;;22.98;;
51214;SDS011;63849;47.546;19.254;2024-01-15T09:36:03;33.97;;;22.45;;
51214;SDS011;63849;47.546;19.254;2024-01-15T09:38:29;41.20;;;22.02;;
51214;SDS011;63849;47.546;19.254;2024-01-15T09:40:56;38.08;;;19.83;;
51214;SDS011;63849;47.546;19.254;2024-01-15T09:43:22;32.58;;;19.83;;
51214;SDS011;63849;47.546;19.254;2024-01-15T09:45:51;32.78;;;20.23;;
51214;SDS011;63849;47.546;19.254;2024-01-15T09:48:18;30.65;;;17.17;;
51214;SDS011;63849;47.546;19.254;2024-01-15T09:50:44;25.90;;;15.45;;
51214;SDS011;63849;47.546;19.254;2024-01-15T09:53:10;36.50;;;19.00;;
51214;SDS011;63849;47.546;19.254;2024-01-15T09:55:41;25.63;;;13.52;;
51214;SDS011;63849;47.546;19.254;2024-01-15T09:58:06;26.92;;;15.70;;
51214;SDS011;63849;47.546;19.254;2024-01-15T10:00:33;32.30;;;18.02;;
51214;SDS011;63849;47.546;19.254;2024-01-15T10:03:02;28.27;;;16.45;;
51214;SDS011;63849;47.546;19.254;2024-01-15T10:05:28;25.65;;;14.20;;
51214;SDS011;63849;47.546;19.254;2024-01-15T10:07:54;24.10;;;13.35;;
51214;SDS011;63849;47.546;19.254;2024-01-15T10:10:22;20.67;;;13.05;;
51214;SDS011;63849;47.546;19.254;2024-01-15T10:12:49;24.17;;;13.57;;
51214;SDS011;63849;47.546;19.254;2024-01-15T10:15:15;23.50;;;13.68;;
51214;SDS011;63849;47.546;19.254;2024-01-15T10:17:42;20.65;;;11.43;;
51214;SDS011;63849;47.546;19.254;2024-01-15T10:20:09;17.27;;;10.65;;
51214;SDS011;63849;47.546;19.254;2024-01-15T10:22:38;23.73;;;12.52;;
51214;SDS011;63849;47.546;19.254;2024-01-15T10:25:06;24.40;;;13.38;;
51214;SDS011;63849;47.546;19.254;2024-01-15T10:27:35;42.22;;;23.35;;
51214;SDS011;63849;47.546;19.254;2024-01-15T10:30:01;33.50;;;17.83;;
51214;SDS011;63849;47.546;19.254;2024-01-15T10:32:28;19.17;;;12.13;;
51214;SDS011;63849;47.546;19.254;2024-01-15T10:35:13;19.42;;;11.77;;
51214;SDS011;63849;47.546;19.254;2024-01-15T10:37:41;19.95;;;12.40;;
51214;SDS011;63849;47.546;19.254;2024-01-15T10:40:06;16.80;;;12.15;;
51214;SDS011;63849;47.546;19.254;2024-01-15T10:42:33;21.70;;;12.95;;
51214;SDS011;63849;47.546;19.254;2024-01-15T10:44:58;19.05;;;11.63;;
51214;SDS011;63849;47.546;19.254;2024-01-15T10:47:24;19.15;;;11.40;;
51214;SDS011;63849;47.546;19.254;2024-01-15T10:49:49;19.20;;;11.65;;
51214;SDS011;63849;47.546;19.254;2024-01-15T10:52:16;23.05;;;14.88;;
51214;SDS011;63849;47.546;19.254;2024-01-15T10:54:42;19.55;;;12.27;;
51214;SDS011;63849;47.546;19.254;2024-01-15T10:57:09;20.67;;;12.80;;
51214;SDS011;63849;47.546;19.254;2024-01-15T10:59:35;16.73;;;10.70;;
51214;SDS011;63849;47.546;19.254;2024-01-15T11:02:21;18.67;;;11.45;;
51214;SDS011;63849;47.546;19.254;2024-01-15T11:04:47;23.45;;;12.93;;
51214;SDS011;63849;47.546;19.254;2024-01-15T11:07:13;24.90;;;13.93;;
51214;SDS011;63849;47.546;19.254;2024-01-15T11:09:39;17.25;;;10.80;;
51214;SDS011;63849;47.546;19.254;2024-01-15T11:12:11;15.82;;;9.77;;
51214;SDS011;63849;47.546;19.254;2024-01-15T11:17:05;15.43;;;8.98;;
51214;SDS011;63849;47.546;19.254;2024-01-15T11:19:44;18.58;;;11.70;;
51214;SDS011;63849;47.546;19.254;2024-01-15T11:22:47;15.98;;;10.55;;
51214;SDS011;63849;47.546;19.254;2024-01-15T11:24:56;17.92;;;12.63;;
51214;SDS011;63849;47.546;19.254;2024-01-15T11:30:16;13.93;;;8.52;;
51214;SDS011;63849;47.546;19.254;2024-01-15T11:32:44;12.90;;;8.73;;
51214;SDS011;63849;47.546;19.254;2024-01-15T11:35:11;15.07;;;9.45;;
51214;SDS011;63849;47.546;19.254;2024-01-15T11:40:23;19.38;;;11.63;;
51214;SDS011;63849;47.546;19.254;2024-01-15T11:43:03;16.20;;;9.90;;
51214;SDS011;63849;47.546;19.254;2024-01-15T11:45:30;14.90;;;9.27;;
51214;SDS011;63849;47.546;19.254;2024-01-15T11:50:33;16.88;;;9.50;;
51214;SDS011;63849;47.546;19.254;2024-01-15T11:53:03;15.10;;;10.02;;
51214;SDS011;63849;47.546;19.254;2024-01-15T11:55:39;14.60;;;8.98;;
51214;SDS011;63849;47.546;19.254;2024-01-15T11:58:10;15.23;;;8.60;;
51214;SDS011;63849;47.546;19.254;2024-01-15T12:00:45;14.15;;;8.82;;
51214;SDS011;63849;47.546;19.254;2024-01-15T12:03:13;15.35;;;8.68;;
51214;SDS011;63849;47.546;19.254;2024-01-15T12:05:39;15.75;;;8.55;;
51214;SDS011;63849;47.546;19.254;2024-01-15T12:08:07;14.32;;;9.43;;
51214;SDS011;63849;47.546;19.254;2024-01-15T12:10:35;16.17;;;8.25;;
51214;SDS011;63849;47.546;19.254;2024-01-15T12:13:05;12.15;;;7.32;;
51214;SDS011;63849;47.546;19.254;2024-01-15T12:15:41;16.90;;;9.45;;
51214;SDS011;63849;47.546;19.254;2024-01-15T12:18:08;30.30;;;15.90;;
51214;SDS011;63849;47.546;19.254;2024-01-15T12:20:35;14.27;;;8.35;;
51214;SDS011;63849;47.546;19.254;2024-01-15T12:23:01;22.42;;;9.88;;
51214;SDS011;63849;47.546;19.254;2024-01-15T12:25:31;16.48;;;8.95;;
51214;SDS011;63849;47.546;19.254;2024-01-15T12:27:57;19.67;;;9.57;;
51214;SDS011;63849;47.546;19.254;2024-01-15T12:30:24;14.40;;;7.55;;
51214;SDS011;63849;47.546;19.254;2024-01-15T12:32:51;29.17;;;10.93;;
51214;SDS011;63849;47.546;19.254;2024-01-15T12:35:17;13.80;;;8.98;;
51214;SDS011;63849;47.546;19.254;2024-01-15T12:37:43;20.60;;;10.43;;
51214;SDS011;63849;47.546;19.254;2024-01-15T12:40:11;19.05;;;9.43;;
51214;SDS011;63849;47.546;19.254;2024-01-15T12:42:39;24.10;;;11.02;;
51214;SDS011;63849;47.546;19.254;2024-01-15T12:45:05;17.73;;;9.23;;
51214;SDS011;63849;47.546;19.254;2024-01-15T12:47:32;12.88;;;7.65;;
51214;SDS011;63849;47.546;19.254;2024-01-15T12:49:57;18.02;;;10.23;;
51214;SDS011;63849;47.546;19.254;2024-01-15T12:52:26;15.10;;;8.48;;
51214;SDS011;63849;47.546;19.254;2024-01-15T12:54:55;12.60;;;7.15;;
51214;SDS011;63849;47.546;19.254;2024-01-15T12:57:21;11.02;;;6.28;;
51214;SDS011;63849;47.546;19.254;2024-01-15T12:59:48;9.52;;;6.32;;
51214;SDS011;63849;47.546;19.254;2024-01-15T13:02:15;11.13;;;6.55;;
51214;SDS011;63849;47.546;19.254;2024-01-15T13:04:41;19.45;;;13.93;;
51214;SDS011;63849;47.546;19.254;2024-01-15T13:07:07;10.48;;;7.07;;
51214;SDS011;63849;47.546;19.254;2024-01-15T13:09:34;14.70;;;7.22;;
51214;SDS011;63849;47.546;19.254;2024-01-15T13:12:01;16.38;;;9.38;;
51214;SDS011;63849;47.546;19.254;2024-01-15T13:14:27;12.35;;;7.45;;
51214;SDS011;63849;47.546;19.254;2024-01-15T13:16:53;19.63;;;7.20;;
51214;SDS011;63849;47.546;19.254;2024-01-15T13:19:19;11.43;;;6.95;;
51214;SDS011;63849;47.546;19.254;2024-01-15T13:21:46;11.20;;;7.38;;
51214;SDS011;63849;47.546;19.254;2024-01-15T13:24:12;10.73;;;6.63;;
51214;SDS011;63849;47.546;19.254;2024-01-15T13:26:39;40.97;;;26.05;;
51214;SDS011;63849;47.546;19.254;2024-01-15T13:29:04;25.30;;;17.40;;
51214;SDS011;63849;47.546;19.254;2024-01-15T13:31:31;12.02;;;8.23;;
51214;SDS011;63849;47.546;19.254;2024-01-15T13:33:57;13.55;;;7.35;;
51214;SDS011;63849;47.546;19.254;2024-01-15T13:36:23;13.93;;;8.60;;
51214;SDS011;63849;47.546;19.254;2024-01-15T13:38:49;9.27;;;6.60;;
51214;SDS011;63849;47.546;19.254;2024-01-15T13:41:16;14.23;;;7.40;;
51214;SDS011;63849;47.546;19.254;2024-01-15T13:43:48;14.65;;;7.57;;
51214;SDS011;63849;47.546;19.254;2024-01-15T13:46:14;15.88;;;8.75;;
51214;SDS011;63849;47.546;19.254;2024-01-15T13:48:40;15.20;;;7.85;;
51214;SDS011;63849;47.546;19.254;2024-01-15T13:51:06;27.08;;;13.77;;
51214;SDS011;63849;47.546;19.254;2024-01-15T13:53:31;20.17;;;9.57;;
51214;SDS011;63849;47.546;19.254;2024-01-15T13:55:57;25.13;;;13.05;;
51214;SDS011;63849;47.546;19.254;2024-01-15T13:58:22;19.77;;;10.43;;
51214;SDS011;63849;47.546;19.254;2024-01-15T14:00:50;15.93;;;9.50;;
51214;SDS011;63849;47.546;19.254;2024-01-15T14:03:17;17.92;;;10.55;;
51214;SDS011;63849;47.546;19.254;2024-01-15T14:05:44;17.00;;;8.20;;
51214;SDS011;63849;47.546;19.254;2024-01-15T14:08:09;15.80;;;8.35;;
51214;SDS011;63849;47.546;19.254;2024-01-15T14:10:35;14.30;;;7.45;;
51214;SDS011;63849;47.546;19.254;2024-01-15T14:13:02;18.85;;;11.48;;
51214;SDS011;63849;47.546;19.254;2024-01-15T14:15:28;13.93;;;10.07;;
51214;SDS011;63849;47.546;19.254;2024-01-15T14:17:54;14.52;;;10.65;;
51214;SDS011;63849;47.546;19.254;2024-01-15T14:20:20;22.58;;;11.48;;